Delta Junction, Alaska
Current Conditions -  °F | °C
As of 1:53 PM on Saturday 20 Dec 2014 (Local Time) from PABI Reporting Station
Scattered Clouds Scattered Clouds  
Wind Chill: -4°   Ceiling: Unl
Heat Index: 15°   Visibility: 10mi
Dew Point:   Wind: 25mph
Humidity: 70%   Direction: 110°ESE
Pressure: 29.06"   Gusts: 36mph
Location:  64.04°N, 145.73°W
Report Text: PABI 202253Z 11022G31KT 10SM FEW080 SCT200 M09/M14 A2906 RMK AO2 PK WND 10031/2250 SLP878 ACSL DSNT E T10941139 $
Loading
Personal Weather Stations






























Interactive Weather Map New forecast layout! Learn more

10-Day Weather Forecast

Advertisements
Track Severe Weather on mobile